NCAR-RAP Real-Time Weather Data

Output produced by METARs form (12 August 2020  17:44 UTC)
found at http://weather.rap.ucar.edu/surface/
 
KMHT 121653Z 26007KT 10SM SCT055 SCT200 BKN250 32/17 A2999 RMK AO2 SLP162 T03220172
KMHT 121553Z 30008KT 260V330 10SM FEW055 FEW200 BKN250 32/16 A2999 RMK AO2 SLP162 T03170161
KMHT 121453Z 33008KT 10SM FEW050 BKN250 30/18 A2999 RMK AO2 SLP162 T03000178 50003
KMHT 121353Z 33007KT 10SM FEW040 FEW120 BKN250 28/18 A2999 RMK AO2 SLP164 T02830183
KMHT 121253Z 31008KT 10SM FEW035 FEW120 BKN250 28/18 A2999 RMK AO2 SLP162 T02780183
KMHT 121153Z 28006KT 10SM BKN120 BKN250 26/20 A2998 RMK AO2 SLP159 T02610200 10261 20244 53016
KMHT 121053Z 27004KT 10SM SCT100 BKN250 25/21 A2996 RMK AO2 SLP153 T02500206
KMHT 120953Z 25003KT 10SM SCT070 BKN250 25/22 A2995 RMK AO2 SLP149 T02500217
KMHT 120853Z 20004KT 10SM FEW070 BKN250 25/22 A2993 RMK AO2 SLP143 T02500217 53009
KMHT 120753Z 18008KT 10SM SCT070 BKN250 26/22 A2992 RMK AO2 SLP138 T02560217
KMHT 120653Z 18006KT 10SM SCT022 BKN070 BKN250 26/22 A2991 RMK AO2 SLP135 T02560217
KMHT 120553Z 19011KT 10SM SCT070 BKN250 26/21 A2991 RMK AO2 SLP134 T02610211 10317 20261 50000
KMHT 120453Z 20007KT 10SM BKN250 26/21 A2991 RMK AO2 SLP137 T02610206 403560228
KMHT 120353Z 18007KT 10SM BKN250 27/20 A2991 RMK AO2 SLP135 T02670200
KMHT 120253Z 20009KT 10SM SCT250 28/20 A2991 RMK AO2 SLP133 T02780200 51013
KMHT 120153Z 19007KT 10SM SCT250 29/21 A2990 RMK AO2 SLP133 T02890206
KMHT 120053Z 19010KT 10SM FEW100 SCT250 30/21 A2988 RMK AO2 SLP124 T03000206
KMHT 112353Z 20010KT 10SM FEW100 SCT250 32/21 A2987 RMK AO2 SLP122 T03170206 10356 20317 53004
KMHT 112253Z 22010KT 10SM FEW055 SCT250 33/20 A2986 RMK AO2 SLP118 T03280200
KMHT 112153Z 21009KT 10SM SCT065 SCT100 SCT250 33/19 A2985 RMK AO2 SLP117 T03330194
KMHT 112053Z 21010KT 10SM SCT065 SCT250 34/19 A2986 RMK AO2 SLP117 T03390189 56016
KMHT 111953Z 20013G18KT 10SM SCT065 SCT250 35/18 A2986 RMK AO2 SLP116 T03500178